sensor_id;sensor_type;location;lat;lon;timestamp;P1;durP1;ratioP1;P2;durP2;ratioP2
21901;SDS011;11115;46.038;14.612;2023-05-07T00:01:45;3.53;;;1.27;;
21901;SDS011;11115;46.038;14.612;2023-05-07T00:04:16;1.92;;;1.55;;
21901;SDS011;11115;46.038;14.612;2023-05-07T00:06:57;2.07;;;1.07;;
21901;SDS011;11115;46.038;14.612;2023-05-07T00:09:28;6.78;;;1.17;;
21901;SDS011;11115;46.038;14.612;2023-05-07T00:12:06;1.33;;;1.00;;
21901;SDS011;11115;46.038;14.612;2023-05-07T00:14:42;2.37;;;1.27;;
21901;SDS011;11115;46.038;14.612;2023-05-07T00:17:14;2.20;;;1.33;;
21901;SDS011;11115;46.038;14.612;2023-05-07T00:19:52;0.67;;;0.67;;
21901;SDS011;11115;46.038;14.612;2023-05-07T00:22:29;2.00;;;1.27;;
21901;SDS011;11115;46.038;14.612;2023-05-07T00:25:05;1.97;;;1.00;;
21901;SDS011;11115;46.038;14.612;2023-05-07T00:27:37;1.10;;;0.93;;
21901;SDS011;11115;46.038;14.612;2023-05-07T00:30:08;1.10;;;1.00;;
21901;SDS011;11115;46.038;14.612;2023-05-07T00:33:14;0.83;;;0.73;;
21901;SDS011;11115;46.038;14.612;2023-05-07T00:35:49;1.03;;;0.90;;
21901;SDS011;11115;46.038;14.612;2023-05-07T00:38:32;1.00;;;0.80;;
21901;SDS011;11115;46.038;14.612;2023-05-07T00:41:06;1.27;;;0.70;;
21901;SDS011;11115;46.038;14.612;2023-05-07T00:43:40;2.10;;;0.70;;
21901;SDS011;11115;46.038;14.612;2023-05-07T00:46:13;3.60;;;1.60;;
21901;SDS011;11115;46.038;14.612;2023-05-07T00:48:50;1.63;;;1.13;;
21901;SDS011;11115;46.038;14.612;2023-05-07T00:51:26;6.57;;;1.10;;
21901;SDS011;11115;46.038;14.612;2023-05-07T00:54:00;3.30;;;1.20;;
21901;SDS011;11115;46.038;14.612;2023-05-07T00:56:41;1.03;;;0.73;;
21901;SDS011;11115;46.038;14.612;2023-05-07T00:59:16;1.10;;;1.00;;
21901;SDS011;11115;46.038;14.612;2023-05-07T01:01:51;2.90;;;1.10;;
21901;SDS011;11115;46.038;14.612;2023-05-07T01:04:27;1.00;;;0.90;;
21901;SDS011;11115;46.038;14.612;2023-05-07T01:06:58;1.02;;;0.95;;
21901;SDS011;11115;46.038;14.612;2023-05-07T01:09:36;1.37;;;1.10;;
21901;SDS011;11115;46.038;14.612;2023-05-07T01:12:09;1.25;;;0.70;;
21901;SDS011;11115;46.038;14.612;2023-05-07T01:14:47;0.97;;;0.70;;
21901;SDS011;11115;46.038;14.612;2023-05-07T01:17:19;1.40;;;1.00;;
21901;SDS011;11115;46.038;14.612;2023-05-07T01:19:58;1.60;;;1.20;;
21901;SDS011;11115;46.038;14.612;2023-05-07T01:22:43;0.60;;;0.60;;
21901;SDS011;11115;46.038;14.612;2023-05-07T01:25:19;1.87;;;1.30;;
21901;SDS011;11115;46.038;14.612;2023-05-07T01:27:51;2.47;;;0.80;;
21901;SDS011;11115;46.038;14.612;2023-05-07T01:30:33;1.35;;;1.05;;
21901;SDS011;11115;46.038;14.612;2023-05-07T01:33:08;1.57;;;0.90;;
21901;SDS011;11115;46.038;14.612;2023-05-07T01:36:00;1.33;;;0.90;;
21901;SDS011;11115;46.038;14.612;2023-05-07T01:38:36;0.80;;;0.70;;
21901;SDS011;11115;46.038;14.612;2023-05-07T01:41:06;1.23;;;1.13;;
21901;SDS011;11115;46.038;14.612;2023-05-07T01:43:46;3.97;;;1.00;;
21901;SDS011;11115;46.038;14.612;2023-05-07T01:46:16;1.17;;;0.80;;
21901;SDS011;11115;46.038;14.612;2023-05-07T01:49:03;1.00;;;0.90;;
21901;SDS011;11115;46.038;14.612;2023-05-07T01:51:42;1.43;;;1.00;;
21901;SDS011;11115;46.038;14.612;2023-05-07T01:54:28;2.43;;;0.97;;
21901;SDS011;11115;46.038;14.612;2023-05-07T01:59:46;2.07;;;1.20;;
21901;SDS011;11115;46.038;14.612;2023-05-07T02:02:16;2.50;;;1.00;;
21901;SDS011;11115;46.038;14.612;2023-05-07T02:04:52;1.00;;;0.70;;
21901;SDS011;11115;46.038;14.612;2023-05-07T02:07:26;1.70;;;1.00;;
21901;SDS011;11115;46.038;14.612;2023-05-07T02:10:01;0.80;;;0.77;;
21901;SDS011;11115;46.038;14.612;2023-05-07T02:12:36;2.13;;;1.27;;
21901;SDS011;11115;46.038;14.612;2023-05-07T02:15:14;2.03;;;1.20;;
21901;SDS011;11115;46.038;14.612;2023-05-07T02:20:51;1.70;;;0.90;;
21901;SDS011;11115;46.038;14.612;2023-05-07T02:23:23;1.00;;;0.87;;
21901;SDS011;11115;46.038;14.612;2023-05-07T02:25:57;1.43;;;0.63;;
21901;SDS011;11115;46.038;14.612;2023-05-07T02:28:28;1.43;;;0.90;;
21901;SDS011;11115;46.038;14.612;2023-05-07T02:31:05;3.20;;;1.20;;
21901;SDS011;11115;46.038;14.612;2023-05-07T02:33:34;1.23;;;0.83;;
21901;SDS011;11115;46.038;14.612;2023-05-07T02:36:09;1.10;;;1.00;;
21901;SDS011;11115;46.038;14.612;2023-05-07T02:38:48;1.27;;;0.97;;
21901;SDS011;11115;46.038;14.612;2023-05-07T02:41:20;1.27;;;0.73;;
21901;SDS011;11115;46.038;14.612;2023-05-07T02:43:51;1.23;;;0.73;;
21901;SDS011;11115;46.038;14.612;2023-05-07T02:46:45;1.80;;;1.10;;
21901;SDS011;11115;46.038;14.612;2023-05-07T02:49:14;1.17;;;0.77;;
21901;SDS011;11115;46.038;14.612;2023-05-07T02:54:22;1.43;;;1.00;;
21901;SDS011;11115;46.038;14.612;2023-05-07T02:56:53;3.37;;;0.70;;
21901;SDS011;11115;46.038;14.612;2023-05-07T02:59:24;1.50;;;1.00;;
21901;SDS011;11115;46.038;14.612;2023-05-07T03:01:55;1.00;;;0.85;;
21901;SDS011;11115;46.038;14.612;2023-05-07T03:04:41;1.40;;;0.87;;
21901;SDS011;11115;46.038;14.612;2023-05-07T03:07:12;0.90;;;0.70;;
21901;SDS011;11115;46.038;14.612;2023-05-07T03:09:43;0.93;;;0.90;;
21901;SDS011;11115;46.038;14.612;2023-05-07T03:12:13;3.70;;;0.87;;
21901;SDS011;11115;46.038;14.612;2023-05-07T03:14:46;1.27;;;0.57;;
21901;SDS011;11115;46.038;14.612;2023-05-07T03:17:18;0.83;;;0.70;;
21901;SDS011;11115;46.038;14.612;2023-05-07T03:19:52;1.23;;;1.07;;
21901;SDS011;11115;46.038;14.612;2023-05-07T03:22:24;1.57;;;1.10;;
21901;SDS011;11115;46.038;14.612;2023-05-07T03:25:00;4.77;;;1.50;;
21901;SDS011;11115;46.038;14.612;2023-05-07T03:27:38;1.97;;;1.10;;
21901;SDS011;11115;46.038;14.612;2023-05-07T03:30:12;0.90;;;0.90;;
21901;SDS011;11115;46.038;14.612;2023-05-07T03:32:41;1.90;;;1.27;;
21901;SDS011;11115;46.038;14.612;2023-05-07T03:35:12;3.00;;;1.30;;
21901;SDS011;11115;46.038;14.612;2023-05-07T03:37:48;2.80;;;1.40;;
21901;SDS011;11115;46.038;14.612;2023-05-07T03:40:22;2.37;;;0.90;;
21901;SDS011;11115;46.038;14.612;2023-05-07T03:45:29;1.27;;;0.67;;
21901;SDS011;11115;46.038;14.612;2023-05-07T03:48:11;1.20;;;0.87;;
21901;SDS011;11115;46.038;14.612;2023-05-07T03:50:49;0.67;;;0.67;;
21901;SDS011;11115;46.038;14.612;2023-05-07T03:53:20;1.60;;;1.05;;
21901;SDS011;11115;46.038;14.612;2023-05-07T03:55:51;0.80;;;0.80;;
21901;SDS011;11115;46.038;14.612;2023-05-07T03:58:24;0.63;;;0.63;;
21901;SDS011;11115;46.038;14.612;2023-05-07T04:01:10;1.50;;;1.00;;
21901;SDS011;11115;46.038;14.612;2023-05-07T04:03:55;0.97;;;0.87;;
21901;SDS011;11115;46.038;14.612;2023-05-07T04:06:33;1.90;;;0.93;;
21901;SDS011;11115;46.038;14.612;2023-05-07T04:09:02;0.60;;;0.60;;
21901;SDS011;11115;46.038;14.612;2023-05-07T04:11:38;1.33;;;0.80;;
21901;SDS011;11115;46.038;14.612;2023-05-07T04:14:20;1.60;;;0.90;;
21901;SDS011;11115;46.038;14.612;2023-05-07T04:16:55;0.90;;;0.90;;
21901;SDS011;11115;46.038;14.612;2023-05-07T04:19:32;2.80;;;1.30;;
21901;SDS011;11115;46.038;14.612;2023-05-07T04:22:19;2.33;;;1.30;;
21901;SDS011;11115;46.038;14.612;2023-05-07T04:24:50;1.63;;;1.30;;
21901;SDS011;11115;46.038;14.612;2023-05-07T04:27:29;1.47;;;1.17;;
21901;SDS011;11115;46.038;14.612;2023-05-07T04:30:01;1.40;;;0.95;;
21901;SDS011;11115;46.038;14.612;2023-05-07T04:32:39;1.70;;;1.20;;
21901;SDS011;11115;46.038;14.612;2023-05-07T04:35:14;1.10;;;1.00;;
21901;SDS011;11115;46.038;14.612;2023-05-07T04:37:53;1.27;;;1.00;;
21901;SDS011;11115;46.038;14.612;2023-05-07T04:40:41;1.60;;;1.40;;
21901;SDS011;11115;46.038;14.612;2023-05-07T04:43:16;3.20;;;1.10;;
21901;SDS011;11115;46.038;14.612;2023-05-07T04:45:51;1.70;;;1.30;;
21901;SDS011;11115;46.038;14.612;2023-05-07T04:48:25;1.63;;;1.33;;
21901;SDS011;11115;46.038;14.612;2023-05-07T04:50:59;2.20;;;1.20;;
21901;SDS011;11115;46.038;14.612;2023-05-07T04:53:38;3.07;;;1.87;;
21901;SDS011;11115;46.038;14.612;2023-05-07T04:56:12;1.30;;;1.20;;
21901;SDS011;11115;46.038;14.612;2023-05-07T04:58:44;1.57;;;1.40;;
21901;SDS011;11115;46.038;14.612;2023-05-07T05:01:20;2.93;;;0.90;;
21901;SDS011;11115;46.038;14.612;2023-05-07T05:03:50;1.63;;;1.03;;
21901;SDS011;11115;46.038;14.612;2023-05-07T05:06:35;1.57;;;1.20;;
21901;SDS011;11115;46.038;14.612;2023-05-07T05:09:07;22.13;;;9.00;;
21901;SDS011;11115;46.038;14.612;2023-05-07T05:11:39;15.17;;;6.83;;
21901;SDS011;11115;46.038;14.612;2023-05-07T05:14:10;4.70;;;3.10;;
21901;SDS011;11115;46.038;14.612;2023-05-07T05:16:42;6.43;;;3.03;;
21901;SDS011;11115;46.038;14.612;2023-05-07T05:19:13;4.33;;;2.37;;
21901;SDS011;11115;46.038;14.612;2023-05-07T05:21:49;2.53;;;1.73;;
21901;SDS011;11115;46.038;14.612;2023-05-07T05:24:20;1.63;;;1.53;;
21901;SDS011;11115;46.038;14.612;2023-05-07T05:26:54;2.43;;;1.90;;
21901;SDS011;11115;46.038;14.612;2023-05-07T05:29:26;2.20;;;1.47;;
21901;SDS011;11115;46.038;14.612;2023-05-07T05:32:00;3.97;;;2.10;;
21901;SDS011;11115;46.038;14.612;2023-05-07T05:34:34;2.43;;;1.77;;
21901;SDS011;11115;46.038;14.612;2023-05-07T05:37:11;3.00;;;1.43;;
21901;SDS011;11115;46.038;14.612;2023-05-07T05:39:44;7.43;;;2.20;;
21901;SDS011;11115;46.038;14.612;2023-05-07T05:42:16;3.03;;;2.47;;
21901;SDS011;11115;46.038;14.612;2023-05-07T05:44:50;3.33;;;2.00;;
21901;SDS011;11115;46.038;14.612;2023-05-07T05:50:07;2.57;;;1.70;;
21901;SDS011;11115;46.038;14.612;2023-05-07T05:52:50;3.47;;;1.83;;
21901;SDS011;11115;46.038;14.612;2023-05-07T05:55:28;2.73;;;1.60;;
21901;SDS011;11115;46.038;14.612;2023-05-07T05:58:06;1.40;;;1.30;;
21901;SDS011;11115;46.038;14.612;2023-05-07T06:00:44;2.33;;;1.27;;
21901;SDS011;11115;46.038;14.612;2023-05-07T06:03:18;2.47;;;1.80;;
21901;SDS011;11115;46.038;14.612;2023-05-07T06:06:08;2.50;;;1.43;;
21901;SDS011;11115;46.038;14.612;2023-05-07T06:08:39;2.85;;;1.77;;
21901;SDS011;11115;46.038;14.612;2023-05-07T06:11:25;6.30;;;2.07;;
21901;SDS011;11115;46.038;14.612;2023-05-07T06:14:02;1.10;;;1.00;;
21901;SDS011;11115;46.038;14.612;2023-05-07T06:19:08;2.30;;;1.40;;
21901;SDS011;11115;46.038;14.612;2023-05-07T06:21:40;1.90;;;1.23;;
21901;SDS011;11115;46.038;14.612;2023-05-07T06:24:14;1.57;;;1.23;;
21901;SDS011;11115;46.038;14.612;2023-05-07T06:26:44;2.47;;;1.42;;
21901;SDS011;11115;46.038;14.612;2023-05-07T06:29:15;1.30;;;1.20;;
21901;SDS011;11115;46.038;14.612;2023-05-07T06:31:48;1.60;;;1.40;;
21901;SDS011;11115;46.038;14.612;2023-05-07T06:34:23;1.37;;;1.27;;
21901;SDS011;11115;46.038;14.612;2023-05-07T06:36:57;2.20;;;1.20;;
21901;SDS011;11115;46.038;14.612;2023-05-07T06:39:41;4.13;;;1.73;;
21901;SDS011;11115;46.038;14.612;2023-05-07T06:42:22;1.00;;;0.85;;
21901;SDS011;11115;46.038;14.612;2023-05-07T06:44:55;1.80;;;0.90;;
21901;SDS011;11115;46.038;14.612;2023-05-07T06:47:30;1.27;;;1.00;;
21901;SDS011;11115;46.038;14.612;2023-05-07T06:50:10;1.63;;;1.40;;
21901;SDS011;11115;46.038;14.612;2023-05-07T06:52:55;1.97;;;1.13;;
21901;SDS011;11115;46.038;14.612;2023-05-07T06:55:29;1.30;;;1.03;;
21901;SDS011;11115;46.038;14.612;2023-05-07T06:58:04;1.80;;;1.07;;
21901;SDS011;11115;46.038;14.612;2023-05-07T07:00:39;0.90;;;0.90;;
21901;SDS011;11115;46.038;14.612;2023-05-07T07:03:11;1.57;;;0.97;;
21901;SDS011;11115;46.038;14.612;2023-05-07T07:05:52;0.97;;;0.90;;
21901;SDS011;11115;46.038;14.612;2023-05-07T07:08:31;2.03;;;1.47;;
21901;SDS011;11115;46.038;14.612;2023-05-07T07:11:10;1.53;;;1.10;;
21901;SDS011;11115;46.038;14.612;2023-05-07T07:13:43;1.67;;;1.00;;
21901;SDS011;11115;46.038;14.612;2023-05-07T07:16:16;0.90;;;0.90;;
21901;SDS011;11115;46.038;14.612;2023-05-07T07:18:46;2.00;;;1.40;;
21901;SDS011;11115;46.038;14.612;2023-05-07T07:21:16;0.90;;;0.90;;
21901;SDS011;11115;46.038;14.612;2023-05-07T07:23:49;1.05;;;1.02;;
21901;SDS011;11115;46.038;14.612;2023-05-07T07:26:20;1.00;;;0.90;;
21901;SDS011;11115;46.038;14.612;2023-05-07T07:29:00;2.47;;;1.40;;
21901;SDS011;11115;46.038;14.612;2023-05-07T07:31:34;0.80;;;0.80;;
21901;SDS011;11115;46.038;14.612;2023-05-07T07:36:36;2.30;;;0.93;;
21901;SDS011;11115;46.038;14.612;2023-05-07T07:39:16;2.45;;;1.30;;
21901;SDS011;11115;46.038;14.612;2023-05-07T07:41:59;0.90;;;0.90;;
21901;SDS011;11115;46.038;14.612;2023-05-07T07:44:34;0.93;;;0.90;;
21901;SDS011;11115;46.038;14.612;2023-05-07T07:47:21;1.17;;;1.03;;
21901;SDS011;11115;46.038;14.612;2023-05-07T07:49:54;1.70;;;1.07;;
21901;SDS011;11115;46.038;14.612;2023-05-07T07:52:25;1.38;;;1.27;;
21901;SDS011;11115;46.038;14.612;2023-05-07T07:55:01;1.27;;;1.17;;
21901;SDS011;11115;46.038;14.612;2023-05-07T07:57:42;2.20;;;1.47;;
21901;SDS011;11115;46.038;14.612;2023-05-07T08:00:19;1.42;;;1.13;;
21901;SDS011;11115;46.038;14.612;2023-05-07T08:02:58;1.77;;;1.10;;
21901;SDS011;11115;46.038;14.612;2023-05-07T08:05:36;1.52;;;1.10;;
21901;SDS011;11115;46.038;14.612;2023-05-07T08:08:13;2.90;;;1.10;;
21901;SDS011;11115;46.038;14.612;2023-05-07T08:10:58;0.68;;;0.68;;
21901;SDS011;11115;46.038;14.612;2023-05-07T08:13:33;0.77;;;0.77;;
21901;SDS011;11115;46.038;14.612;2023-05-07T08:16:06;1.17;;;0.80;;
21901;SDS011;11115;46.038;14.612;2023-05-07T08:18:41;1.17;;;1.08;;
21901;SDS011;11115;46.038;14.612;2023-05-07T08:21:12;2.25;;;1.05;;
21901;SDS011;11115;46.038;14.612;2023-05-07T08:23:44;2.53;;;1.10;;
21901;SDS011;11115;46.038;14.612;2023-05-07T08:26:14;1.23;;;1.05;;
21901;SDS011;11115;46.038;14.612;2023-05-07T08:28:46;1.17;;;0.90;;
21901;SDS011;11115;46.038;14.612;2023-05-07T08:31:20;1.92;;;1.27;;
21901;SDS011;11115;46.038;14.612;2023-05-07T08:33:49;0.85;;;0.80;;
21901;SDS011;11115;46.038;14.612;2023-05-07T08:36:22;0.90;;;0.80;;
21901;SDS011;11115;46.038;14.612;2023-05-07T08:39:00;2.53;;;0.75;;
21901;SDS011;11115;46.038;14.612;2023-05-07T08:41:32;0.82;;;0.80;;
21901;SDS011;11115;46.038;14.612;2023-05-07T08:44:02;1.55;;;0.82;;
21901;SDS011;11115;46.038;14.612;2023-05-07T08:46:44;0.60;;;0.60;;
21901;SDS011;11115;46.038;14.612;2023-05-07T08:49:22;4.75;;;1.17;;
21901;SDS011;11115;46.038;14.612;2023-05-07T08:51:54;1.42;;;1.00;;
21901;SDS011;11115;46.038;14.612;2023-05-07T08:54:29;1.38;;;1.05;;
21901;SDS011;11115;46.038;14.612;2023-05-07T08:57:06;1.58;;;1.20;;
21901;SDS011;11115;46.038;14.612;2023-05-07T08:59:41;0.88;;;0.88;;
21901;SDS011;11115;46.038;14.612;2023-05-07T09:02:11;0.57;;;0.57;;
21901;SDS011;11115;46.038;14.612;2023-05-07T09:04:46;1.02;;;0.95;;
21901;SDS011;11115;46.038;14.612;2023-05-07T09:07:22;1.00;;;0.80;;
21901;SDS011;11115;46.038;14.612;2023-05-07T09:09:54;2.53;;;0.93;;
21901;SDS011;11115;46.038;14.612;2023-05-07T09:12:34;0.68;;;0.68;;
21901;SDS011;11115;46.038;14.612;2023-05-07T09:15:12;0.65;;;0.65;;
21901;SDS011;11115;46.038;14.612;2023-05-07T09:17:41;1.08;;;0.90;;
21901;SDS011;11115;46.038;14.612;2023-05-07T09:20:12;1.20;;;0.90;;
21901;SDS011;11115;46.038;14.612;2023-05-07T09:22:56;0.85;;;0.85;;
21901;SDS011;11115;46.038;14.612;2023-05-07T09:25:36;2.72;;;0.82;;
21901;SDS011;11115;46.038;14.612;2023-05-07T09:28:21;1.10;;;1.00;;
21901;SDS011;11115;46.038;14.612;2023-05-07T09:30:57;1.40;;;0.90;;
21901;SDS011;11115;46.038;14.612;2023-05-07T09:33:29;0.68;;;0.60;;
21901;SDS011;11115;46.038;14.612;2023-05-07T09:36:05;1.02;;;1.00;;
21901;SDS011;11115;46.038;14.612;2023-05-07T09:38:40;0.60;;;0.60;;
21901;SDS011;11115;46.038;14.612;2023-05-07T09:41:13;1.90;;;0.82;;
21901;SDS011;11115;46.038;14.612;2023-05-07T09:44:04;2.35;;;0.98;;
21901;SDS011;11115;46.038;14.612;2023-05-07T09:46:43;1.20;;;0.98;;
21901;SDS011;11115;46.038;14.612;2023-05-07T09:49:20;3.65;;;1.13;;
21901;SDS011;11115;46.038;14.612;2023-05-07T09:52:00;1.73;;;1.48;;
21901;SDS011;11115;46.038;14.612;2023-05-07T09:54:44;1.90;;;1.10;;
21901;SDS011;11115;46.038;14.612;2023-05-07T09:57:19;1.58;;;1.05;;
21901;SDS011;11115;46.038;14.612;2023-05-07T09:59:55;0.93;;;0.93;;
21901;SDS011;11115;46.038;14.612;2023-05-07T10:02:51;3.25;;;0.90;;
21901;SDS011;11115;46.038;14.612;2023-05-07T10:05:42;2.67;;;0.90;;
21901;SDS011;11115;46.038;14.612;2023-05-07T10:08:21;1.25;;;0.90;;
21901;SDS011;11115;46.038;14.612;2023-05-07T10:10:56;1.13;;;1.02;;
21901;SDS011;11115;46.038;14.612;2023-05-07T10:13:29;2.10;;;0.90;;
21901;SDS011;11115;46.038;14.612;2023-05-07T10:16:16;0.60;;;0.60;;
21901;SDS011;11115;46.038;14.612;2023-05-07T10:18:51;2.95;;;1.30;;
21901;SDS011;11115;46.038;14.612;2023-05-07T10:21:51;2.15;;;1.20;;
21901;SDS011;11115;46.038;14.612;2023-05-07T10:24:32;1.02;;;0.82;;
21901;SDS011;11115;46.038;14.612;2023-05-07T10:27:10;1.08;;;0.70;;
21901;SDS011;11115;46.038;14.612;2023-05-07T10:30:34;0.93;;;0.80;;
21901;SDS011;11115;46.038;14.612;2023-05-07T10:33:08;0.70;;;0.70;;
21901;SDS011;11115;46.038;14.612;2023-05-07T10:35:45;2.85;;;1.58;;
21901;SDS011;11115;46.038;14.612;2023-05-07T10:38:37;4.18;;;1.20;;
21901;SDS011;11115;46.038;14.612;2023-05-07T10:41:12;0.50;;;0.50;;
21901;SDS011;11115;46.038;14.612;2023-05-07T10:43:56;0.95;;;0.85;;
21901;SDS011;11115;46.038;14.612;2023-05-07T10:46:33;0.63;;;0.63;;
21901;SDS011;11115;46.038;14.612;2023-05-07T10:49:17;0.90;;;0.60;;
21901;SDS011;11115;46.038;14.612;2023-05-07T10:55:19;0.73;;;0.73;;
21901;SDS011;11115;46.038;14.612;2023-05-07T11:01:49;0.63;;;0.63;;
21901;SDS011;11115;46.038;14.612;2023-05-07T11:04:45;0.68;;;0.55;;
21901;SDS011;11115;46.038;14.612;2023-05-07T11:08:25;2.63;;;0.85;;
21901;SDS011;11115;46.038;14.612;2023-05-07T11:11:02;3.70;;;0.90;;
21901;SDS011;11115;46.038;14.612;2023-05-07T11:13:50;0.95;;;0.60;;
21901;SDS011;11115;46.038;14.612;2023-05-07T11:16:41;0.88;;;0.60;;
21901;SDS011;11115;46.038;14.612;2023-05-07T11:22:56;0.52;;;0.50;;
21901;SDS011;11115;46.038;14.612;2023-05-07T11:25:35;0.65;;;0.40;;
21901;SDS011;11115;46.038;14.612;2023-05-07T11:28:17;1.15;;;0.68;;
21901;SDS011;11115;46.038;14.612;2023-05-07T11:31:00;0.93;;;0.82;;
21901;SDS011;11115;46.038;14.612;2023-05-07T11:36:07;1.42;;;1.00;;
21901;SDS011;11115;46.038;14.612;2023-05-07T11:38:46;0.85;;;0.63;;
21901;SDS011;11115;46.038;14.612;2023-05-07T11:41:34;0.60;;;0.50;;
21901;SDS011;11115;46.038;14.612;2023-05-07T11:44:06;0.70;;;0.68;;
21901;SDS011;11115;46.038;14.612;2023-05-07T11:46:42;2.47;;;1.08;;
21901;SDS011;11115;46.038;14.612;2023-05-07T11:49:17;0.93;;;0.73;;
21901;SDS011;11115;46.038;14.612;2023-05-07T11:51:57;0.82;;;0.70;;
21901;SDS011;11115;46.038;14.612;2023-05-07T11:54:37;3.20;;;0.50;;
21901;SDS011;11115;46.038;14.612;2023-05-07T11:57:16;1.23;;;0.82;;
21901;SDS011;11115;46.038;14.612;2023-05-07T11:59:46;1.30;;;0.68;;
21901;SDS011;11115;46.038;14.612;2023-05-07T12:04:51;1.08;;;0.90;;
21901;SDS011;11115;46.038;14.612;2023-05-07T12:07:20;1.38;;;0.73;;
21901;SDS011;11115;46.038;14.612;2023-05-07T12:09:50;0.70;;;0.70;;
21901;SDS011;11115;46.038;14.612;2023-05-07T12:12:20;0.60;;;0.60;;
21901;SDS011;11115;46.038;14.612;2023-05-07T12:14:52;1.25;;;0.65;;
21901;SDS011;11115;46.038;14.612;2023-05-07T12:17:30;0.60;;;0.60;;
21901;SDS011;11115;46.038;14.612;2023-05-07T12:20:02;0.50;;;0.47;;
21901;SDS011;11115;46.038;14.612;2023-05-07T12:22:47;0.60;;;0.60;;
21901;SDS011;11115;46.038;14.612;2023-05-07T12:25:19;0.35;;;0.35;;
21901;SDS011;11115;46.038;14.612;2023-05-07T12:27:53;2.05;;;0.70;;
21901;SDS011;11115;46.038;14.612;2023-05-07T12:30:23;0.88;;;0.60;;
21901;SDS011;11115;46.038;14.612;2023-05-07T12:32:53;0.50;;;0.50;;
21901;SDS011;11115;46.038;14.612;2023-05-07T12:35:32;1.15;;;0.63;;
21901;SDS011;11115;46.038;14.612;2023-05-07T12:38:14;0.70;;;0.40;;
21901;SDS011;11115;46.038;14.612;2023-05-07T12:40:59;0.55;;;0.52;;
21901;SDS011;11115;46.038;14.612;2023-05-07T12:43:33;0.63;;;0.60;;
21901;SDS011;11115;46.038;14.612;2023-05-07T12:46:16;1.20;;;0.68;;
21901;SDS011;11115;46.038;14.612;2023-05-07T12:48:48;0.77;;;0.77;;
21901;SDS011;11115;46.038;14.612;2023-05-07T12:51:20;0.98;;;0.73;;
21901;SDS011;11115;46.038;14.612;2023-05-07T12:53:52;1.02;;;0.93;;
21901;SDS011;11115;46.038;14.612;2023-05-07T12:56:35;1.60;;;1.00;;
21901;SDS011;11115;46.038;14.612;2023-05-07T12:59:05;0.60;;;0.60;;
21901;SDS011;11115;46.038;14.612;2023-05-07T13:01:38;0.70;;;0.70;;
21901;SDS011;11115;46.038;14.612;2023-05-07T13:04:16;1.50;;;0.95;;
21901;SDS011;11115;46.038;14.612;2023-05-07T13:06:57;1.25;;;0.93;;
21901;SDS011;11115;46.038;14.612;2023-05-07T13:09:30;0.73;;;0.73;;
21901;SDS011;11115;46.038;14.612;2023-05-07T13:12:00;0.82;;;0.82;;
21901;SDS011;11115;46.038;14.612;2023-05-07T13:14:38;1.33;;;1.00;;
21901;SDS011;11115;46.038;14.612;2023-05-07T13:17:22;8.90;;;1.10;;
21901;SDS011;11115;46.038;14.612;2023-05-07T13:19:54;0.95;;;0.93;;
21901;SDS011;11115;46.038;14.612;2023-05-07T13:22:27;0.93;;;0.80;;
21901;SDS011;11115;46.038;14.612;2023-05-07T13:27:29;0.70;;;0.68;;
21901;SDS011;11115;46.038;14.612;2023-05-07T13:30:07;1.52;;;0.73;;
21901;SDS011;11115;46.038;14.612;2023-05-07T13:32:49;1.15;;;0.75;;
21901;SDS011;11115;46.038;14.612;2023-05-07T13:35:19;3.92;;;0.95;;
21901;SDS011;11115;46.038;14.612;2023-05-07T13:37:57;1.48;;;1.10;;
21901;SDS011;11115;46.038;14.612;2023-05-07T13:40:31;0.80;;;0.75;;
21901;SDS011;11115;46.038;14.612;2023-05-07T13:43:05;2.15;;;1.27;;
21901;SDS011;11115;46.038;14.612;2023-05-07T13:45:38;1.23;;;0.90;;
21901;SDS011;11115;46.038;14.612;2023-05-07T13:48:12;0.95;;;0.73;;
21901;SDS011;11115;46.038;14.612;2023-05-07T13:50:45;1.02;;;0.80;;
21901;SDS011;11115;46.038;14.612;2023-05-07T13:53:30;1.27;;;0.98;;
21901;SDS011;11115;46.038;14.612;2023-05-07T13:56:07;0.70;;;0.70;;
21901;SDS011;11115;46.038;14.612;2023-05-07T13:58:39;1.35;;;0.85;;
21901;SDS011;11115;46.038;14.612;2023-05-07T14:01:26;0.70;;;0.70;;
21901;SDS011;11115;46.038;14.612;2023-05-07T14:04:03;0.68;;;0.60;;
21901;SDS011;11115;46.038;14.612;2023-05-07T14:06:41;1.48;;;0.80;;
21901;SDS011;11115;46.038;14.612;2023-05-07T14:09:15;1.75;;;0.80;;
21901;SDS011;11115;46.038;14.612;2023-05-07T14:11:45;0.70;;;0.70;;
21901;SDS011;11115;46.038;14.612;2023-05-07T14:14:28;0.88;;;0.80;;
21901;SDS011;11115;46.038;14.612;2023-05-07T14:17:14;0.88;;;0.68;;
21901;SDS011;11115;46.038;14.612;2023-05-07T14:19:46;0.47;;;0.47;;
21901;SDS011;11115;46.038;14.612;2023-05-07T14:22:22;1.05;;;0.82;;
21901;SDS011;11115;46.038;14.612;2023-05-07T14:25:01;1.75;;;0.80;;
21901;SDS011;11115;46.038;14.612;2023-05-07T14:27:38;0.93;;;0.90;;
21901;SDS011;11115;46.038;14.612;2023-05-07T14:30:19;0.90;;;0.90;;
21901;SDS011;11115;46.038;14.612;2023-05-07T14:32:51;0.65;;;0.65;;
21901;SDS011;11115;46.038;14.612;2023-05-07T14:35:25;1.38;;;1.10;;
21901;SDS011;11115;46.038;14.612;2023-05-07T14:37:58;1.05;;;0.70;;
21901;SDS011;11115;46.038;14.612;2023-05-07T14:40:40;0.93;;;0.93;;
21901;SDS011;11115;46.038;14.612;2023-05-07T14:43:11;1.20;;;1.00;;
21901;SDS011;11115;46.038;14.612;2023-05-07T14:45:43;1.00;;;0.90;;
21901;SDS011;11115;46.038;14.612;2023-05-07T14:48:23;0.70;;;0.70;;
21901;SDS011;11115;46.038;14.612;2023-05-07T14:50:54;0.80;;;0.80;;
21901;SDS011;11115;46.038;14.612;2023-05-07T14:53:27;1.00;;;0.80;;
21901;SDS011;11115;46.038;14.612;2023-05-07T14:55:59;1.00;;;0.90;;
21901;SDS011;11115;46.038;14.612;2023-05-07T14:58:45;2.47;;;0.90;;
21901;SDS011;11115;46.038;14.612;2023-05-07T15:01:22;0.77;;;0.77;;
21901;SDS011;11115;46.038;14.612;2023-05-07T15:03:54;4.07;;;1.40;;
21901;SDS011;11115;46.038;14.612;2023-05-07T15:06:30;0.77;;;0.77;;
21901;SDS011;11115;46.038;14.612;2023-05-07T15:09:02;0.82;;;0.82;;
21901;SDS011;11115;46.038;14.612;2023-05-07T15:11:36;1.38;;;1.23;;
21901;SDS011;11115;46.038;14.612;2023-05-07T15:14:06;0.73;;;0.73;;
21901;SDS011;11115;46.038;14.612;2023-05-07T15:16:38;4.40;;;1.17;;
21901;SDS011;11115;46.038;14.612;2023-05-07T15:19:16;3.13;;;1.25;;
21901;SDS011;11115;46.038;14.612;2023-05-07T15:21:49;1.00;;;0.90;;
21901;SDS011;11115;46.038;14.612;2023-05-07T15:24:34;2.45;;;1.15;;
21901;SDS011;11115;46.038;14.612;2023-05-07T15:27:03;1.10;;;1.00;;
21901;SDS011;11115;46.038;14.612;2023-05-07T15:29:38;1.30;;;1.08;;
21901;SDS011;11115;46.038;14.612;2023-05-07T15:32:14;2.00;;;1.00;;
21901;SDS011;11115;46.038;14.612;2023-05-07T15:34:49;1.02;;;0.80;;
21901;SDS011;11115;46.038;14.612;2023-05-07T15:37:19;0.77;;;0.77;;
21901;SDS011;11115;46.038;14.612;2023-05-07T15:40:05;4.05;;;1.10;;
21901;SDS011;11115;46.038;14.612;2023-05-07T15:42:48;0.90;;;0.70;;
21901;SDS011;11115;46.038;14.612;2023-05-07T15:45:28;2.17;;;0.80;;
21901;SDS011;11115;46.038;14.612;2023-05-07T15:48:04;1.00;;;0.90;;
21901;SDS011;11115;46.038;14.612;2023-05-07T15:50:35;1.48;;;1.02;;
21901;SDS011;11115;46.038;14.612;2023-05-07T15:53:08;1.38;;;0.80;;
21901;SDS011;11115;46.038;14.612;2023-05-07T15:55:42;1.42;;;1.05;;
21901;SDS011;11115;46.038;14.612;2023-05-07T15:58:21;0.75;;;0.75;;
21901;SDS011;11115;46.038;14.612;2023-05-07T16:01:06;0.80;;;0.80;;
21901;SDS011;11115;46.038;14.612;2023-05-07T16:03:46;0.75;;;0.70;;
21901;SDS011;11115;46.038;14.612;2023-05-07T16:06:20;0.85;;;0.60;;